createdAt,value
2019-04-20T00:00:55.084Z,28.77
2019-04-20T00:03:58.891Z,29.40
2019-04-20T00:07:01.940Z,28.73
2019-04-20T00:10:10.969Z,26.93
2019-04-20T00:13:21.514Z,26.73
2019-04-20T00:16:14.674Z,29.70
2019-04-20T00:19:24.322Z,28.70
2019-04-20T00:22:24.668Z,27.83
2019-04-20T00:25:41.791Z,26.33
2019-04-20T00:28:51.242Z,25.80
2019-04-20T00:31:49.261Z,24.60
2019-04-20T00:34:43.297Z,24.60
2019-04-20T00:37:44.562Z,26.60
2019-04-20T00:40:49.678Z,25.17
2019-04-20T00:43:51.664Z,26.90
2019-04-20T00:47:04.316Z,27.10
2019-04-20T00:50:13.693Z,27.43
2019-04-20T00:53:12.446Z,31.53
2019-04-20T00:56:05.501Z,29.03
2019-04-20T00:59:20.549Z,27.17
2019-04-20T01:02:25.691Z,26.33
2019-04-20T01:05:55.729Z,25.13
2019-04-20T01:08:40.197Z,25.77
2019-04-20T01:11:45.494Z,25.20
2019-04-20T01:14:52.103Z,27.27
2019-04-20T01:17:50.147Z,27.30
2019-04-20T01:20:52.014Z,28.00
2019-04-20T01:23:58.624Z,27.70
2019-04-20T01:27:00.840Z,25.63
2019-04-20T01:30:10.764Z,26.93
2019-04-20T01:33:24.345Z,29.57
2019-04-20T01:36:35.085Z,29.33
2019-04-20T01:39:25.366Z,29.20
2019-04-20T01:42:19.180Z,27.23
2019-04-20T01:45:28.894Z,30.63
2019-04-20T01:48:28.684Z,27.50
2019-04-20T01:51:37.704Z,28.23
2019-04-20T01:54:59.167Z,27.47
2019-04-20T01:58:00.151Z,27.83
2019-04-20T02:00:48.679Z,28.00
2019-04-20T02:04:00.201Z,29.97
2019-04-20T02:07:04.703Z,30.17
2019-04-20T02:10:09.778Z,31.30
2019-04-20T02:13:11.189Z,30.40
2019-04-20T02:16:22.888Z,32.13
2019-04-20T02:19:31.284Z,33.27
2019-04-20T02:22:38.287Z,32.30
2019-04-20T02:25:25.019Z,32.87
2019-04-20T02:28:53.906Z,31.97
2019-04-20T02:35:09.354Z,34.97
2019-04-20T02:38:21.791Z,33.27
2019-04-20T02:41:17.441Z,33.00
2019-04-20T02:47:33.761Z,29.90
2019-04-20T02:50:30.416Z,31.93
2019-04-20T02:53:55.609Z,33.60
2019-04-20T02:56:39.439Z,32.73
2019-04-20T03:02:27.518Z,33.07
2019-04-20T03:05:29.740Z,32.27
2019-04-20T03:08:42.301Z,31.53
2019-04-20T03:11:52.965Z,29.07
2019-04-20T03:14:44.951Z,33.43
2019-04-20T03:17:57.457Z,40.87
2019-04-20T03:21:04.576Z,32.67
2019-04-20T03:24:06.973Z,36.50
2019-04-20T03:27:09.618Z,37.63
2019-04-20T03:31:15.740Z,37.33
2019-04-20T03:34:05.674Z,37.77
2019-04-20T03:36:47.202Z,37.60
2019-04-20T03:39:40.760Z,36.87
2019-04-20T03:42:28.893Z,35.97
2019-04-20T03:45:41.596Z,36.37
2019-04-20T03:48:56.263Z,39.37
2019-04-20T03:52:06.974Z,37.17
2019-04-20T03:55:01.464Z,35.43
2019-04-20T03:58:20.550Z,34.07
2019-04-20T04:01:55.527Z,35.50
2019-04-20T04:04:39.010Z,33.83
2019-04-20T04:07:30.528Z,31.10
2019-04-20T04:10:36.382Z,29.90
2019-04-20T04:13:29.093Z,30.80
2019-04-20T04:16:37.231Z,30.60
2019-04-20T04:19:39.716Z,29.97
2019-04-20T04:22:56.462Z,30.53
2019-04-20T04:26:00.772Z,33.50
2019-04-20T04:29:08.294Z,30.10
2019-04-20T04:32:21.159Z,29.83
2019-04-20T04:35:10.419Z,28.90
2019-04-20T04:38:24.077Z,29.37
2019-04-20T04:41:24.299Z,28.47
2019-04-20T04:44:19.881Z,30.13
2019-04-20T04:47:12.142Z,29.80
2019-04-20T04:50:18.288Z,28.57
2019-04-20T04:53:30.367Z,27.53
2019-04-20T04:56:24.938Z,26.40
2019-04-20T04:59:26.030Z,28.50
2019-04-20T05:02:34.900Z,28.17
2019-04-20T05:05:49.188Z,28.60
2019-04-20T05:08:43.742Z,26.27
2019-04-20T05:11:42.662Z,26.37
2019-04-20T05:14:56.881Z,26.80
2019-04-20T05:18:06.175Z,27.43
2019-04-20T05:21:17.555Z,29.33
2019-04-20T05:24:22.654Z,28.83
2019-04-20T05:27:33.504Z,27.40
2019-04-20T05:30:16.029Z,30.13
2019-04-20T05:33:27.778Z,27.93
2019-04-20T05:36:41.282Z,29.30
2019-04-20T05:39:45.763Z,28.80
2019-04-20T05:43:07.917Z,27.57
2019-04-20T05:46:18.204Z,28.20
2019-04-20T05:49:22.066Z,29.73
2019-04-20T05:52:35.092Z,30.50
2019-04-20T05:55:25.681Z,28.30
2019-04-20T05:58:26.193Z,30.07
2019-04-20T06:01:39.704Z,29.20
2019-04-20T06:04:55.959Z,25.90
2019-04-20T06:07:42.355Z,26.90
2019-04-20T06:10:46.617Z,25.30
2019-04-20T06:13:47.134Z,21.77
2019-04-20T06:17:11.129Z,20.57
2019-04-20T06:20:12.643Z,21.97
2019-04-20T06:23:33.282Z,20.33
2019-04-20T06:26:43.431Z,21.07
2019-04-20T06:29:38.013Z,20.13
2019-04-20T06:33:26.708Z,18.47
2019-04-20T06:36:27.647Z,20.13
2019-04-20T06:39:30.884Z,17.43
2019-04-20T06:42:34.293Z,18.20
2019-04-20T06:45:45.787Z,15.70
2019-04-20T06:48:50.042Z,18.43
2019-04-20T06:51:47.678Z,15.80
2019-04-20T06:54:58.167Z,16.60
2019-04-20T06:58:12.694Z,15.17
2019-04-20T07:01:11.068Z,15.57
2019-04-20T07:04:36.196Z,17.47
2019-04-20T07:07:21.189Z,17.37
2019-04-20T07:10:28.490Z,14.63
2019-04-20T07:13:17.605Z,14.73
2019-04-20T07:16:36.291Z,14.60
2019-04-20T07:19:56.423Z,15.47
2019-04-20T07:26:15.352Z,16.00
2019-04-20T07:29:15.521Z,15.80
2019-04-20T07:32:11.640Z,17.03
2019-04-20T07:35:21.708Z,14.50
2019-04-20T07:38:40.174Z,13.90
2019-04-20T07:41:32.975Z,16.27
2019-04-20T07:44:35.328Z,13.33
2019-04-20T07:47:41.148Z,16.30
2019-04-20T07:50:29.573Z,14.73
2019-04-20T07:53:36.664Z,14.90
2019-04-20T07:56:49.499Z,16.03
2019-04-20T07:59:45.017Z,16.40
2019-04-20T08:03:11.446Z,15.27
2019-04-20T08:06:02.295Z,17.07
2019-04-20T08:09:12.824Z,15.50
2019-04-20T08:12:25.922Z,15.10
2019-04-20T08:15:38.066Z,14.50
2019-04-20T08:18:32.316Z,15.17
2019-04-20T08:21:36.163Z,16.33
2019-04-20T08:24:37.685Z,16.77
2019-04-20T08:27:27.631Z,17.93
2019-04-20T08:31:05.150Z,18.60
2019-04-20T08:34:31.270Z,17.97
2019-04-20T08:37:25.753Z,16.37
2019-04-20T08:40:40.311Z,16.80
2019-04-20T08:43:47.050Z,15.37
2019-04-20T08:46:53.648Z,15.40
2019-04-20T08:50:11.609Z,15.33
2019-04-20T08:53:20.467Z,10.97
2019-04-20T08:56:05.926Z,11.43
2019-04-20T08:58:57.390Z,16.27
2019-04-20T09:02:05.158Z,13.87
2019-04-20T09:05:13.499Z,16.63
2019-04-20T09:08:17.961Z,14.73
2019-04-20T09:11:34.574Z,13.47
2019-04-20T09:14:23.416Z,13.93
2019-04-20T09:17:36.912Z,13.57
2019-04-20T09:20:45.886Z,14.17
2019-04-20T09:23:53.399Z,10.67
2019-04-20T09:26:57.274Z,10.90
2019-04-20T09:30:00.216Z,12.40
2019-04-20T09:33:09.630Z,10.33
2019-04-20T09:36:10.311Z,11.07
2019-04-20T09:39:11.525Z,11.57
2019-04-20T09:42:12.110Z,11.37
2019-04-20T09:45:23.239Z,11.97
2019-04-20T09:48:31.326Z,8.93
2019-04-20T09:51:40.243Z,8.90
2019-04-20T09:54:48.305Z,9.60
2019-04-20T09:57:52.904Z,9.47
2019-04-20T10:00:53.927Z,8.20
2019-04-20T10:03:44.952Z,8.23
2019-04-20T10:06:47.669Z,7.97
2019-04-20T10:09:50.352Z,8.97
2019-04-20T10:12:54.214Z,8.40
2019-04-20T10:15:57.631Z,8.70
2019-04-20T10:19:00.741Z,9.30
2019-04-20T10:22:04.556Z,7.60
2019-04-20T10:25:06.939Z,8.40
2019-04-20T10:28:09.465Z,8.53
2019-04-20T10:31:12.741Z,8.73
2019-04-20T10:34:15.816Z,8.47
2019-04-20T10:37:19.830Z,8.13
2019-04-20T10:40:38.034Z,9.70
2019-04-20T10:43:26.099Z,9.83
2019-04-20T10:46:28.941Z,7.53
2019-04-20T10:49:31.532Z,9.30
2019-04-20T10:52:33.930Z,8.00
2019-04-20T10:55:37.637Z,7.87
2019-04-20T10:58:40.133Z,7.37
2019-04-20T11:01:45.568Z,7.40
2019-04-20T11:04:48.522Z,5.80
2019-04-20T11:07:50.781Z,6.63
2019-04-20T11:11:03.515Z,7.97
2019-04-20T11:14:00.751Z,8.03
2019-04-20T11:17:02.576Z,8.93
2019-04-20T11:20:07.470Z,7.50
2019-04-20T11:23:10.766Z,9.63
2019-04-20T11:26:14.068Z,8.17
2019-04-20T11:29:16.497Z,8.80
2019-04-20T11:32:18.438Z,8.63
2019-04-20T11:35:30.128Z,7.07
2019-04-20T11:38:24.380Z,8.37
2019-04-20T11:41:30.392Z,7.50
2019-04-20T11:44:31.609Z,6.67
2019-04-20T11:47:35.390Z,8.00
2019-04-20T11:50:37.848Z,7.43
2019-04-20T11:53:40.451Z,7.17
2019-04-20T11:56:45.767Z,7.30
2019-04-20T11:59:47.292Z,7.33
2019-04-20T12:03:00.544Z,7.00
2019-04-20T12:06:06.301Z,8.07
2019-04-20T12:09:08.338Z,21.93
2019-04-20T12:12:22.406Z,7.60
2019-04-20T12:15:14.759Z,7.03
2019-04-20T12:18:17.915Z,6.93
2019-04-20T12:21:21.026Z,7.53
2019-04-20T12:24:24.378Z,7.57
2019-04-20T12:27:27.007Z,7.67
2019-04-20T12:30:30.002Z,8.20
2019-04-20T12:33:32.649Z,7.17
2019-04-20T12:36:35.325Z,6.73
2019-04-20T12:39:37.679Z,5.93
2019-04-20T12:42:41.004Z,6.43
2019-04-20T12:45:44.126Z,5.50
2019-04-20T12:48:47.456Z,5.77
2019-04-20T12:51:54.657Z,5.57
2019-04-20T12:54:54.540Z,7.33
2019-04-20T12:57:57.013Z,7.37
2019-04-20T13:00:58.902Z,9.40
2019-04-20T13:04:02.959Z,9.67
2019-04-20T13:07:05.910Z,4.77
2019-04-20T13:10:09.848Z,6.00
2019-04-20T13:13:16.815Z,5.90
2019-04-20T13:16:30.376Z,5.47
2019-04-20T13:19:33.287Z,5.80
2019-04-20T13:22:36.814Z,6.17
2019-04-20T13:25:39.324Z,6.53
2019-04-20T13:28:42.960Z,14.27
2019-04-20T13:31:45.364Z,5.97
2019-04-20T13:34:49.956Z,6.87
2019-04-20T13:37:52.069Z,7.27
2019-04-20T13:40:54.105Z,6.27
2019-04-20T13:43:59.281Z,5.47
2019-04-20T13:47:00.889Z,6.63
2019-04-20T13:50:07.234Z,5.37
2019-04-20T13:53:11.582Z,6.53
2019-04-20T13:56:14.912Z,6.80
2019-04-20T13:59:32.074Z,6.87
2019-04-20T14:02:40.383Z,7.03
2019-04-20T14:05:44.453Z,6.93
2019-04-20T14:08:47.386Z,6.87
2019-04-20T14:11:49.546Z,6.93
2019-04-20T14:14:51.586Z,6.73
2019-04-20T14:17:55.257Z,8.43
2019-04-20T14:21:00.390Z,17.83
2019-04-20T14:24:04.197Z,7.67
2019-04-20T14:27:06.636Z,8.17
2019-04-20T14:30:09.076Z,19.93
2019-04-20T14:33:11.147Z,13.10
2019-04-20T14:36:13.157Z,7.67
2019-04-20T14:39:16.197Z,6.27
2019-04-20T14:42:33.113Z,6.60
2019-04-20T14:45:24.756Z,7.50
2019-04-20T14:48:26.897Z,18.70
2019-04-20T14:51:29.905Z,13.50
2019-04-20T14:54:31.940Z,7.60
2019-04-20T14:57:35.397Z,6.80
2019-04-20T15:00:54.959Z,7.03
2019-04-20T15:04:04.885Z,5.87
2019-04-20T15:07:02.488Z,10.27
2019-04-20T15:10:06.951Z,7.67
2019-04-20T15:13:10.178Z,7.77
2019-04-20T15:16:15.040Z,6.50
2019-04-20T15:19:18.991Z,6.43
2019-04-20T15:22:41.349Z,6.00
2019-04-20T15:25:44.481Z,8.00
2019-04-20T15:28:48.321Z,4.90
2019-04-20T15:31:50.484Z,6.10
2019-04-20T15:34:53.050Z,5.80
2019-04-20T15:37:55.386Z,7.87
2019-04-20T15:40:57.723Z,5.37
2019-04-20T15:43:59.643Z,6.00
2019-04-20T15:47:01.642Z,5.90
2019-04-20T15:50:07.706Z,8.37
2019-04-20T15:53:11.247Z,6.00
2019-04-20T15:56:14.461Z,9.10
2019-04-20T15:59:16.837Z,5.97
2019-04-20T16:02:21.130Z,4.23
2019-04-20T16:05:35.459Z,4.93
2019-04-20T16:08:38.952Z,4.40
2019-04-20T16:11:41.300Z,4.17
2019-04-20T16:14:43.886Z,4.60
2019-04-20T16:17:50.840Z,4.23
2019-04-20T16:20:58.160Z,4.07
2019-04-20T16:23:56.948Z,3.93
2019-04-20T16:27:18.038Z,3.73
2019-04-20T16:30:21.018Z,3.67
2019-04-20T16:33:24.163Z,3.57
2019-04-20T16:36:26.411Z,4.07
2019-04-20T16:39:28.448Z,3.87
2019-04-20T16:42:30.395Z,4.47
2019-04-20T16:45:32.976Z,3.73
2019-04-20T16:48:35.960Z,3.53
2019-04-20T16:51:38.856Z,4.10
2019-04-20T16:54:41.783Z,3.40
2019-04-20T16:57:46.653Z,3.57
2019-04-20T17:00:47.819Z,3.90
2019-04-20T17:03:59.790Z,3.97
2019-04-20T17:07:10.278Z,3.40
2019-04-20T17:10:15.901Z,3.97
2019-04-20T17:13:30.408Z,4.10
2019-04-20T17:16:23.722Z,4.10
2019-04-20T17:19:25.999Z,3.23
2019-04-20T17:22:28.060Z,3.80
2019-04-20T17:25:30.183Z,4.67
2019-04-20T17:28:52.469Z,4.50
2019-04-20T17:32:08.047Z,3.90
2019-04-20T17:35:21.522Z,3.27
2019-04-20T17:38:16.348Z,3.10
2019-04-20T17:41:42.962Z,2.50
2019-04-20T17:44:39.194Z,2.60
2019-04-20T17:47:47.991Z,2.93
2019-04-20T17:50:55.628Z,3.00
2019-04-20T17:53:52.887Z,2.97
2019-04-20T17:56:49.360Z,3.67
2019-04-20T17:59:58.702Z,2.87
2019-04-20T18:03:18.601Z,2.93
2019-04-20T18:06:27.778Z,3.17
2019-04-20T18:09:43.328Z,2.87
2019-04-20T18:12:26.854Z,3.30
2019-04-20T18:15:36.371Z,3.27
2019-04-20T18:18:42.033Z,3.90
2019-04-20T18:21:41.103Z,4.27
2019-04-20T18:25:02.620Z,6.33
2019-04-20T18:28:04.619Z,5.80
2019-04-20T18:30:59.050Z,6.00
2019-04-20T18:34:07.008Z,6.23
2019-04-20T18:37:28.395Z,6.50
2019-04-20T18:40:51.314Z,5.87
2019-04-20T18:43:50.787Z,6.83
2019-04-20T18:47:13.889Z,7.33
2019-04-20T18:50:04.403Z,8.73
2019-04-20T18:52:58.316Z,8.33
2019-04-20T18:56:02.632Z,8.23
2019-04-20T18:59:05.207Z,8.00
2019-04-20T19:02:16.207Z,6.60
2019-04-20T19:05:13.698Z,7.40
2019-04-20T19:08:17.486Z,8.10
2019-04-20T19:11:21.714Z,7.53
2019-04-20T19:14:34.917Z,7.13
2019-04-20T19:17:59.124Z,8.00
2019-04-20T19:21:11.068Z,8.70
2019-04-20T19:24:18.306Z,9.27
2019-04-20T19:27:23.066Z,12.80
2019-04-20T19:30:34.276Z,15.30
2019-04-20T19:33:38.881Z,19.57
2019-04-20T19:36:38.987Z,22.47
2019-04-20T19:39:49.428Z,26.07
2019-04-20T19:42:59.367Z,26.30
2019-04-20T19:46:29.377Z,22.43
2019-04-20T19:49:01.114Z,13.03
2019-04-20T19:52:24.966Z,9.50
2019-04-20T19:55:14.434Z,9.27
2019-04-20T19:58:18.804Z,8.30
2019-04-20T20:01:07.003Z,7.70
2019-04-20T20:04:10.109Z,7.83
2019-04-20T20:07:22.257Z,8.13
2019-04-20T20:10:20.809Z,7.20
2019-04-20T20:13:27.393Z,7.13
2019-04-20T20:16:33.690Z,6.73
2019-04-20T20:19:54.559Z,7.63
2019-04-20T20:22:39.582Z,8.37
2019-04-20T20:25:42.451Z,9.43
2019-04-20T20:28:47.632Z,7.80
2019-04-20T20:31:58.166Z,8.23
2019-04-20T20:34:56.003Z,9.27
2019-04-20T20:37:57.884Z,9.73
2019-04-20T20:41:10.070Z,9.10
2019-04-20T20:44:05.747Z,10.97
2019-04-20T20:47:31.361Z,9.50
2019-04-20T20:50:42.741Z,10.80
2019-04-20T20:53:21.863Z,11.27
2019-04-20T20:56:25.089Z,11.93
2019-04-20T20:59:36.074Z,14.20
2019-04-20T21:02:43.482Z,13.83
2019-04-20T21:05:33.541Z,14.03
2019-04-20T21:08:42.808Z,14.80
2019-04-20T21:11:40.285Z,15.73
2019-04-20T21:14:43.700Z,15.97
2019-04-20T21:18:09.094Z,17.37
2019-04-20T21:21:10.218Z,16.70
2019-04-20T21:24:03.185Z,15.93
2019-04-20T21:27:06.726Z,17.13
2019-04-20T21:30:05.684Z,17.30
2019-04-20T21:33:11.591Z,17.13
2019-04-20T21:36:19.218Z,21.40
2019-04-20T21:39:32.415Z,19.63
2019-04-20T21:42:26.271Z,22.10
2019-04-20T21:45:31.178Z,21.00
2019-04-20T21:48:43.935Z,19.73
2019-04-20T21:51:44.343Z,18.50
2019-04-20T21:54:38.236Z,18.00
2019-04-20T21:57:47.355Z,18.33
2019-04-20T22:01:07.259Z,16.87
2019-04-20T22:03:58.547Z,16.73
2019-04-20T22:07:00.631Z,16.83
2019-04-20T22:10:07.082Z,18.10
2019-04-20T22:13:09.967Z,18.93
2019-04-20T22:16:14.543Z,18.67
2019-04-20T22:19:33.682Z,19.90
2019-04-20T22:22:39.791Z,19.10
2019-04-20T22:25:42.534Z,15.60
2019-04-20T22:28:27.761Z,14.83
2019-04-20T22:31:29.951Z,14.57
2019-04-20T22:34:33.735Z,18.90
2019-04-20T22:38:03.634Z,14.70
2019-04-20T22:41:03.820Z,14.47
2019-04-20T22:44:11.602Z,13.90
2019-04-20T22:47:13.895Z,14.53
2019-04-20T22:50:28.917Z,14.73
2019-04-20T22:53:29.425Z,13.00
2019-04-20T22:56:34.157Z,13.93
2019-04-20T22:59:30.369Z,14.93
2019-04-20T23:02:28.072Z,15.53
2019-04-20T23:05:30.986Z,14.83
2019-04-20T23:08:33.375Z,15.23
2019-04-20T23:11:36.800Z,15.30
2019-04-20T23:14:40.383Z,16.97
2019-04-20T23:17:45.922Z,15.83
2019-04-20T23:20:47.939Z,15.60
2019-04-20T23:23:53.688Z,14.17
2019-04-20T23:26:55.280Z,14.80
2019-04-20T23:29:58.565Z,13.23
2019-04-20T23:33:02.170Z,14.93
2019-04-20T23:36:05.087Z,15.47
2019-04-20T23:39:08.661Z,15.87
2019-04-20T23:42:14.426Z,15.60
2019-04-20T23:45:35.456Z,16.73
2019-04-20T23:48:38.830Z,14.57
2019-04-20T23:51:59.281Z,16.03
2019-04-20T23:54:49.029Z,15.60
2019-04-20T23:57:46.105Z,16.43
